sensor_id;sensor_type;location;lat;lon;timestamp;P1;durP1;ratioP1;P2;durP2;ratioP2
55455;SDS011;63021;52.836;6.376;2022-12-18T00:01:44;75.72;;;30.05;;
55455;SDS011;63021;52.836;6.376;2022-12-18T00:04:24;76.60;;;30.15;;
55455;SDS011;63021;52.836;6.376;2022-12-18T00:06:50;74.63;;;28.10;;
55455;SDS011;63021;52.836;6.376;2022-12-18T00:09:16;81.40;;;29.40;;
55455;SDS011;63021;52.836;6.376;2022-12-18T00:11:41;63.47;;;29.75;;
55455;SDS011;63021;52.836;6.376;2022-12-18T00:14:08;67.63;;;27.38;;
55455;SDS011;63021;52.836;6.376;2022-12-18T00:16:35;65.82;;;28.42;;
55455;SDS011;63021;52.836;6.376;2022-12-18T00:19:02;74.20;;;28.73;;
55455;SDS011;63021;52.836;6.376;2022-12-18T00:21:29;78.22;;;30.17;;
55455;SDS011;63021;52.836;6.376;2022-12-18T00:23:56;62.88;;;27.83;;
55455;SDS011;63021;52.836;6.376;2022-12-18T00:26:24;79.85;;;29.70;;
55455;SDS011;63021;52.836;6.376;2022-12-18T00:28:51;67.13;;;25.50;;
55455;SDS011;63021;52.836;6.376;2022-12-18T00:31:21;65.65;;;27.13;;
55455;SDS011;63021;52.836;6.376;2022-12-18T00:33:49;83.57;;;29.83;;
55455;SDS011;63021;52.836;6.376;2022-12-18T00:36:21;80.65;;;29.23;;
55455;SDS011;63021;52.836;6.376;2022-12-18T00:38:49;67.70;;;27.35;;
55455;SDS011;63021;52.836;6.376;2022-12-18T00:41:15;82.88;;;30.02;;
55455;SDS011;63021;52.836;6.376;2022-12-18T00:44:02;82.75;;;28.65;;
55455;SDS011;63021;52.836;6.376;2022-12-18T00:46:28;77.50;;;29.50;;
55455;SDS011;63021;52.836;6.376;2022-12-18T00:48:54;82.18;;;30.48;;
55455;SDS011;63021;52.836;6.376;2022-12-18T00:51:19;77.97;;;30.77;;
55455;SDS011;63021;52.836;6.376;2022-12-18T00:53:45;72.72;;;29.95;;
55455;SDS011;63021;52.836;6.376;2022-12-18T00:56:10;83.88;;;30.00;;
55455;SDS011;63021;52.836;6.376;2022-12-18T00:58:35;71.25;;;29.27;;
55455;SDS011;63021;52.836;6.376;2022-12-18T01:01:01;78.20;;;32.17;;
55455;SDS011;63021;52.836;6.376;2022-12-18T01:03:28;75.18;;;29.55;;
55455;SDS011;63021;52.836;6.376;2022-12-18T01:05:53;84.28;;;31.70;;
55455;SDS011;63021;52.836;6.376;2022-12-18T01:08:19;91.43;;;32.63;;
55455;SDS011;63021;52.836;6.376;2022-12-18T01:10:44;74.57;;;31.08;;
55455;SDS011;63021;52.836;6.376;2022-12-18T01:13:09;78.60;;;31.90;;
55455;SDS011;63021;52.836;6.376;2022-12-18T01:15:35;73.63;;;30.52;;
55455;SDS011;63021;52.836;6.376;2022-12-18T01:18:00;89.53;;;33.03;;
55455;SDS011;63021;52.836;6.376;2022-12-18T01:20:26;77.38;;;33.17;;
55455;SDS011;63021;52.836;6.376;2022-12-18T01:22:51;78.90;;;33.30;;
55455;SDS011;63021;52.836;6.376;2022-12-18T01:25:16;78.63;;;33.03;;
55455;SDS011;63021;52.836;6.376;2022-12-18T01:27:42;74.72;;;30.85;;
55455;SDS011;63021;52.836;6.376;2022-12-18T01:30:08;85.85;;;33.17;;
55455;SDS011;63021;52.836;6.376;2022-12-18T01:32:34;80.25;;;31.65;;
55455;SDS011;63021;52.836;6.376;2022-12-18T01:34:59;87.80;;;33.28;;
55455;SDS011;63021;52.836;6.376;2022-12-18T01:37:24;86.38;;;35.08;;
55455;SDS011;63021;52.836;6.376;2022-12-18T01:39:50;89.47;;;33.60;;
55455;SDS011;63021;52.836;6.376;2022-12-18T01:42:19;81.32;;;32.42;;
55455;SDS011;63021;52.836;6.376;2022-12-18T01:47:48;85.07;;;32.55;;
55455;SDS011;63021;52.836;6.376;2022-12-18T01:50:17;80.50;;;33.08;;
55455;SDS011;63021;52.836;6.376;2022-12-18T01:52:43;81.18;;;32.67;;
55455;SDS011;63021;52.836;6.376;2022-12-18T01:55:12;83.47;;;31.17;;
55455;SDS011;63021;52.836;6.376;2022-12-18T01:57:39;85.88;;;35.75;;
55455;SDS011;63021;52.836;6.376;2022-12-18T02:00:08;87.32;;;34.65;;
55455;SDS011;63021;52.836;6.376;2022-12-18T02:02:35;75.00;;;31.30;;
55455;SDS011;63021;52.836;6.376;2022-12-18T02:05:02;82.75;;;32.85;;
55455;SDS011;63021;52.836;6.376;2022-12-18T02:07:31;84.93;;;32.50;;
55455;SDS011;63021;52.836;6.376;2022-12-18T02:09:59;77.45;;;33.58;;
55455;SDS011;63021;52.836;6.376;2022-12-18T02:12:33;85.63;;;31.55;;
55455;SDS011;63021;52.836;6.376;2022-12-18T02:20:23;75.95;;;31.08;;
55455;SDS011;63021;52.836;6.376;2022-12-18T02:22:58;81.32;;;31.30;;
55455;SDS011;63021;52.836;6.376;2022-12-18T02:28:06;69.78;;;30.77;;
55455;SDS011;63021;52.836;6.376;2022-12-18T02:30:36;80.35;;;30.63;;
55455;SDS011;63021;52.836;6.376;2022-12-18T02:33:05;82.60;;;32.72;;
55455;SDS011;63021;52.836;6.376;2022-12-18T02:35:33;79.10;;;28.70;;
55455;SDS011;63021;52.836;6.376;2022-12-18T02:38:01;77.63;;;29.40;;
55455;SDS011;63021;52.836;6.376;2022-12-18T02:40:28;72.85;;;29.13;;
55455;SDS011;63021;52.836;6.376;2022-12-18T02:42:55;75.60;;;30.40;;
55455;SDS011;63021;52.836;6.376;2022-12-18T02:45:26;70.00;;;27.83;;
55455;SDS011;63021;52.836;6.376;2022-12-18T02:47:52;71.43;;;27.77;;
55455;SDS011;63021;52.836;6.376;2022-12-18T02:55:37;76.57;;;27.83;;
55455;SDS011;63021;52.836;6.376;2022-12-18T03:01:01;64.70;;;28.83;;
55455;SDS011;63021;52.836;6.376;2022-12-18T03:03:36;75.30;;;29.65;;
55455;SDS011;63021;52.836;6.376;2022-12-18T03:06:08;77.95;;;27.58;;
55455;SDS011;63021;52.836;6.376;2022-12-18T03:08:41;80.57;;;27.88;;
55455;SDS011;63021;52.836;6.376;2022-12-18T03:11:11;65.75;;;26.48;;
55455;SDS011;63021;52.836;6.376;2022-12-18T03:16:25;70.68;;;25.83;;
55455;SDS011;63021;52.836;6.376;2022-12-18T03:21:23;72.43;;;28.30;;
55455;SDS011;63021;52.836;6.376;2022-12-18T03:23:53;68.90;;;28.60;;
55455;SDS011;63021;52.836;6.376;2022-12-18T03:26:21;74.45;;;29.45;;
55455;SDS011;63021;52.836;6.376;2022-12-18T03:28:51;71.45;;;27.48;;
55455;SDS011;63021;52.836;6.376;2022-12-18T03:31:19;76.75;;;30.67;;
55455;SDS011;63021;52.836;6.376;2022-12-18T03:33:54;78.63;;;29.45;;
55455;SDS011;63021;52.836;6.376;2022-12-18T03:36:23;81.47;;;29.80;;
55455;SDS011;63021;52.836;6.376;2022-12-18T03:38:49;72.18;;;27.75;;
55455;SDS011;63021;52.836;6.376;2022-12-18T03:51:57;68.60;;;26.75;;
55455;SDS011;63021;52.836;6.376;2022-12-18T03:54:28;70.63;;;25.00;;
55455;SDS011;63021;52.836;6.376;2022-12-18T03:57:01;68.25;;;25.23;;
55455;SDS011;63021;52.836;6.376;2022-12-18T03:59:31;75.38;;;28.20;;
55455;SDS011;63021;52.836;6.376;2022-12-18T04:02:01;60.13;;;25.08;;
55455;SDS011;63021;52.836;6.376;2022-12-18T04:04:30;74.00;;;26.08;;
55455;SDS011;63021;52.836;6.376;2022-12-18T04:06:56;67.55;;;25.67;;
55455;SDS011;63021;52.836;6.376;2022-12-18T04:09:23;70.22;;;26.30;;
55455;SDS011;63021;52.836;6.376;2022-12-18T04:11:49;78.60;;;28.35;;
55455;SDS011;63021;52.836;6.376;2022-12-18T04:14:16;63.13;;;23.00;;
55455;SDS011;63021;52.836;6.376;2022-12-18T04:16:41;52.78;;;24.05;;
55455;SDS011;63021;52.836;6.376;2022-12-18T04:19:07;59.58;;;25.75;;
55455;SDS011;63021;52.836;6.376;2022-12-18T04:21:32;65.97;;;25.10;;
55455;SDS011;63021;52.836;6.376;2022-12-18T04:23:57;64.00;;;23.88;;
55455;SDS011;63021;52.836;6.376;2022-12-18T04:26:23;60.83;;;23.40;;
55455;SDS011;63021;52.836;6.376;2022-12-18T04:28:48;56.88;;;26.13;;
55455;SDS011;63021;52.836;6.376;2022-12-18T04:31:13;58.03;;;23.38;;
55455;SDS011;63021;52.836;6.376;2022-12-18T04:33:39;63.53;;;25.45;;
55455;SDS011;63021;52.836;6.376;2022-12-18T04:36:04;62.35;;;26.20;;
55455;SDS011;63021;52.836;6.376;2022-12-18T04:38:30;65.95;;;28.35;;
55455;SDS011;63021;52.836;6.376;2022-12-18T04:40:56;70.55;;;24.67;;
55455;SDS011;63021;52.836;6.376;2022-12-18T04:43:21;61.58;;;23.58;;
55455;SDS011;63021;52.836;6.376;2022-12-18T04:45:46;66.47;;;23.67;;
55455;SDS011;63021;52.836;6.376;2022-12-18T04:48:12;61.78;;;24.35;;
55455;SDS011;63021;52.836;6.376;2022-12-18T04:50:37;68.10;;;25.38;;
55455;SDS011;63021;52.836;6.376;2022-12-18T04:53:02;67.57;;;24.48;;
55455;SDS011;63021;52.836;6.376;2022-12-18T04:55:28;62.40;;;26.23;;
55455;SDS011;63021;52.836;6.376;2022-12-18T04:57:53;67.28;;;24.05;;
55455;SDS011;63021;52.836;6.376;2022-12-18T05:00:19;69.05;;;25.60;;
55455;SDS011;63021;52.836;6.376;2022-12-18T05:02:45;58.92;;;24.52;;
55455;SDS011;63021;52.836;6.376;2022-12-18T05:05:11;67.85;;;24.23;;
55455;SDS011;63021;52.836;6.376;2022-12-18T05:07:36;57.55;;;23.23;;
55455;SDS011;63021;52.836;6.376;2022-12-18T05:10:02;61.30;;;22.08;;
55455;SDS011;63021;52.836;6.376;2022-12-18T05:12:28;66.70;;;23.77;;
55455;SDS011;63021;52.836;6.376;2022-12-18T05:14:53;56.53;;;23.35;;
55455;SDS011;63021;52.836;6.376;2022-12-18T05:17:19;71.22;;;25.83;;
55455;SDS011;63021;52.836;6.376;2022-12-18T05:19:44;57.08;;;23.65;;
55455;SDS011;63021;52.836;6.376;2022-12-18T05:22:09;56.97;;;23.25;;
55455;SDS011;63021;52.836;6.376;2022-12-18T05:24:35;65.72;;;24.50;;
55455;SDS011;63021;52.836;6.376;2022-12-18T05:27:00;68.10;;;24.15;;
55455;SDS011;63021;52.836;6.376;2022-12-18T05:29:26;60.92;;;23.80;;
55455;SDS011;63021;52.836;6.376;2022-12-18T05:31:51;66.63;;;25.77;;
55455;SDS011;63021;52.836;6.376;2022-12-18T05:34:17;59.50;;;24.95;;
55455;SDS011;63021;52.836;6.376;2022-12-18T05:36:42;63.90;;;23.77;;
55455;SDS011;63021;52.836;6.376;2022-12-18T05:39:08;54.63;;;23.48;;
55455;SDS011;63021;52.836;6.376;2022-12-18T05:41:33;65.85;;;25.02;;
55455;SDS011;63021;52.836;6.376;2022-12-18T05:43:59;61.92;;;24.02;;
55455;SDS011;63021;52.836;6.376;2022-12-18T05:46:24;56.85;;;24.83;;
55455;SDS011;63021;52.836;6.376;2022-12-18T05:48:50;57.33;;;23.02;;
55455;SDS011;63021;52.836;6.376;2022-12-18T05:51:17;59.17;;;23.27;;
55455;SDS011;63021;52.836;6.376;2022-12-18T05:53:45;52.47;;;22.95;;
55455;SDS011;63021;52.836;6.376;2022-12-18T05:56:12;53.03;;;23.30;;
55455;SDS011;63021;52.836;6.376;2022-12-18T05:58:40;55.72;;;25.33;;
55455;SDS011;63021;52.836;6.376;2022-12-18T06:01:10;55.08;;;23.23;;
55455;SDS011;63021;52.836;6.376;2022-12-18T06:03:40;56.08;;;23.20;;
55455;SDS011;63021;52.836;6.376;2022-12-18T06:06:15;53.70;;;21.45;;
55455;SDS011;63021;52.836;6.376;2022-12-18T06:08:46;51.53;;;21.98;;
55455;SDS011;63021;52.836;6.376;2022-12-18T06:11:11;49.15;;;21.83;;
55455;SDS011;63021;52.836;6.376;2022-12-18T06:13:38;50.58;;;21.60;;
55455;SDS011;63021;52.836;6.376;2022-12-18T06:16:04;59.75;;;20.13;;
55455;SDS011;63021;52.836;6.376;2022-12-18T06:18:30;50.03;;;21.60;;
55455;SDS011;63021;52.836;6.376;2022-12-18T06:20:56;50.33;;;21.88;;
55455;SDS011;63021;52.836;6.376;2022-12-18T06:23:22;52.70;;;20.73;;
55455;SDS011;63021;52.836;6.376;2022-12-18T06:25:48;47.63;;;19.90;;
55455;SDS011;63021;52.836;6.376;2022-12-18T06:28:14;59.70;;;22.73;;
55455;SDS011;63021;52.836;6.376;2022-12-18T06:30:42;53.55;;;22.92;;
55455;SDS011;63021;52.836;6.376;2022-12-18T06:33:08;49.17;;;20.23;;
55455;SDS011;63021;52.836;6.376;2022-12-18T06:35:34;51.15;;;20.50;;
55455;SDS011;63021;52.836;6.376;2022-12-18T06:38:00;38.30;;;20.02;;
55455;SDS011;63021;52.836;6.376;2022-12-18T06:40:26;51.55;;;22.02;;
55455;SDS011;63021;52.836;6.376;2022-12-18T06:42:51;44.45;;;19.48;;
55455;SDS011;63021;52.836;6.376;2022-12-18T06:45:17;45.95;;;20.63;;
55455;SDS011;63021;52.836;6.376;2022-12-18T06:47:42;46.40;;;19.25;;
55455;SDS011;63021;52.836;6.376;2022-12-18T06:50:08;39.78;;;20.40;;
55455;SDS011;63021;52.836;6.376;2022-12-18T06:52:33;51.60;;;20.30;;
55455;SDS011;63021;52.836;6.376;2022-12-18T06:54:59;47.03;;;20.27;;
55455;SDS011;63021;52.836;6.376;2022-12-18T06:57:24;43.20;;;19.58;;
55455;SDS011;63021;52.836;6.376;2022-12-18T06:59:50;36.95;;;19.20;;
55455;SDS011;63021;52.836;6.376;2022-12-18T07:02:15;43.25;;;19.70;;
55455;SDS011;63021;52.836;6.376;2022-12-18T07:04:41;39.72;;;18.92;;
55455;SDS011;63021;52.836;6.376;2022-12-18T07:07:06;44.25;;;20.15;;
55455;SDS011;63021;52.836;6.376;2022-12-18T07:09:32;38.75;;;19.33;;
55455;SDS011;63021;52.836;6.376;2022-12-18T07:11:57;45.58;;;21.08;;
55455;SDS011;63021;52.836;6.376;2022-12-18T07:14:23;43.95;;;19.08;;
55455;SDS011;63021;52.836;6.376;2022-12-18T07:16:48;40.63;;;20.15;;
55455;SDS011;63021;52.836;6.376;2022-12-18T07:19:13;42.88;;;18.70;;
55455;SDS011;63021;52.836;6.376;2022-12-18T07:21:39;40.10;;;18.30;;
55455;SDS011;63021;52.836;6.376;2022-12-18T07:24:04;36.85;;;18.65;;
55455;SDS011;63021;52.836;6.376;2022-12-18T07:26:30;42.17;;;18.52;;
55455;SDS011;63021;52.836;6.376;2022-12-18T07:28:56;47.30;;;19.33;;
55455;SDS011;63021;52.836;6.376;2022-12-18T07:31:24;36.90;;;19.20;;
55455;SDS011;63021;52.836;6.376;2022-12-18T07:33:50;40.53;;;19.98;;
55455;SDS011;63021;52.836;6.376;2022-12-18T07:36:16;40.90;;;19.65;;
55455;SDS011;63021;52.836;6.376;2022-12-18T07:38:42;45.92;;;20.25;;
55455;SDS011;63021;52.836;6.376;2022-12-18T07:41:09;43.28;;;20.33;;
55455;SDS011;63021;52.836;6.376;2022-12-18T07:43:37;42.70;;;20.42;;
55455;SDS011;63021;52.836;6.376;2022-12-18T07:46:04;45.22;;;21.77;;
55455;SDS011;63021;52.836;6.376;2022-12-18T07:48:30;46.47;;;19.08;;
55455;SDS011;63021;52.836;6.376;2022-12-18T07:50:59;35.08;;;18.67;;
55455;SDS011;63021;52.836;6.376;2022-12-18T07:53:26;43.53;;;19.23;;
55455;SDS011;63021;52.836;6.376;2022-12-18T07:55:55;41.33;;;18.15;;
55455;SDS011;63021;52.836;6.376;2022-12-18T07:58:21;39.63;;;19.25;;
55455;SDS011;63021;52.836;6.376;2022-12-18T08:00:47;40.40;;;16.40;;
55455;SDS011;63021;52.836;6.376;2022-12-18T08:03:12;38.95;;;18.30;;
55455;SDS011;63021;52.836;6.376;2022-12-18T08:05:37;35.60;;;19.83;;
55455;SDS011;63021;52.836;6.376;2022-12-18T08:08:05;37.50;;;18.50;;
55455;SDS011;63021;52.836;6.376;2022-12-18T08:10:30;36.30;;;18.35;;
55455;SDS011;63021;52.836;6.376;2022-12-18T08:12:56;39.03;;;19.58;;
55455;SDS011;63021;52.836;6.376;2022-12-18T08:15:21;35.15;;;19.75;;
55455;SDS011;63021;52.836;6.376;2022-12-18T08:17:46;32.13;;;17.83;;
55455;SDS011;63021;52.836;6.376;2022-12-18T08:20:12;40.30;;;18.17;;
55455;SDS011;63021;52.836;6.376;2022-12-18T08:22:46;39.17;;;19.55;;
55455;SDS011;63021;52.836;6.376;2022-12-18T08:25:11;37.20;;;20.23;;
55455;SDS011;63021;52.836;6.376;2022-12-18T08:27:36;33.20;;;19.17;;
55455;SDS011;63021;52.836;6.376;2022-12-18T08:30:02;34.47;;;18.58;;
55455;SDS011;63021;52.836;6.376;2022-12-18T08:32:29;32.88;;;18.30;;
55455;SDS011;63021;52.836;6.376;2022-12-18T08:34:54;35.28;;;19.23;;
55455;SDS011;63021;52.836;6.376;2022-12-18T08:37:20;31.98;;;17.15;;
55455;SDS011;63021;52.836;6.376;2022-12-18T08:39:45;30.55;;;17.30;;
55455;SDS011;63021;52.836;6.376;2022-12-18T08:42:10;40.58;;;19.95;;
55455;SDS011;63021;52.836;6.376;2022-12-18T08:44:55;33.42;;;18.80;;
55455;SDS011;63021;52.836;6.376;2022-12-18T08:47:20;37.55;;;18.33;;
55455;SDS011;63021;52.836;6.376;2022-12-18T08:49:45;33.55;;;17.13;;
55455;SDS011;63021;52.836;6.376;2022-12-18T08:52:11;32.03;;;17.63;;
55455;SDS011;63021;52.836;6.376;2022-12-18T08:54:36;31.73;;;19.00;;
55455;SDS011;63021;52.836;6.376;2022-12-18T08:57:02;29.05;;;16.00;;
55455;SDS011;63021;52.836;6.376;2022-12-18T08:59:28;32.80;;;18.23;;
55455;SDS011;63021;52.836;6.376;2022-12-18T09:01:55;33.05;;;18.38;;
55455;SDS011;63021;52.836;6.376;2022-12-18T09:04:22;38.83;;;19.52;;
55455;SDS011;63021;52.836;6.376;2022-12-18T09:06:51;36.97;;;20.05;;
55455;SDS011;63021;52.836;6.376;2022-12-18T09:09:17;46.97;;;25.52;;
55455;SDS011;63021;52.836;6.376;2022-12-18T09:11:42;46.75;;;25.95;;
55455;SDS011;63021;52.836;6.376;2022-12-18T09:14:08;42.60;;;21.75;;
55455;SDS011;63021;52.836;6.376;2022-12-18T09:16:34;36.40;;;20.05;;
55455;SDS011;63021;52.836;6.376;2022-12-18T09:19:02;29.48;;;17.15;;
55455;SDS011;63021;52.836;6.376;2022-12-18T09:21:30;32.90;;;19.80;;
55455;SDS011;63021;52.836;6.376;2022-12-18T09:23:57;36.60;;;20.27;;
55455;SDS011;63021;52.836;6.376;2022-12-18T09:26:24;31.27;;;19.23;;
55455;SDS011;63021;52.836;6.376;2022-12-18T09:28:50;34.15;;;17.40;;
55455;SDS011;63021;52.836;6.376;2022-12-18T09:31:16;27.52;;;16.33;;
55455;SDS011;63021;52.836;6.376;2022-12-18T09:33:43;32.75;;;16.60;;
55455;SDS011;63021;52.836;6.376;2022-12-18T09:36:10;32.88;;;18.63;;
55455;SDS011;63021;52.836;6.376;2022-12-18T09:38:37;31.33;;;18.40;;
55455;SDS011;63021;52.836;6.376;2022-12-18T09:41:30;29.30;;;16.58;;
55455;SDS011;63021;52.836;6.376;2022-12-18T09:44:01;25.27;;;14.75;;
55455;SDS011;63021;52.836;6.376;2022-12-18T09:46:31;25.08;;;14.43;;
55455;SDS011;63021;52.836;6.376;2022-12-18T09:49:01;31.35;;;16.33;;
55455;SDS011;63021;52.836;6.376;2022-12-18T09:51:32;23.63;;;15.63;;
55455;SDS011;63021;52.836;6.376;2022-12-18T09:54:03;26.85;;;14.90;;
55455;SDS011;63021;52.836;6.376;2022-12-18T09:56:35;22.70;;;13.60;;
55455;SDS011;63021;52.836;6.376;2022-12-18T09:59:04;28.35;;;15.27;;
55455;SDS011;63021;52.836;6.376;2022-12-18T10:01:30;24.08;;;14.30;;
55455;SDS011;63021;52.836;6.376;2022-12-18T10:03:57;24.15;;;13.77;;
55455;SDS011;63021;52.836;6.376;2022-12-18T10:06:36;25.88;;;15.60;;
55455;SDS011;63021;52.836;6.376;2022-12-18T10:14:43;21.77;;;13.73;;
55455;SDS011;63021;52.836;6.376;2022-12-18T10:19:45;20.13;;;12.93;;
55455;SDS011;63021;52.836;6.376;2022-12-18T10:25:05;34.83;;;12.82;;
55455;SDS011;63021;52.836;6.376;2022-12-18T10:27:41;21.13;;;10.95;;
55455;SDS011;63021;52.836;6.376;2022-12-18T10:30:13;18.63;;;12.15;;
55455;SDS011;63021;52.836;6.376;2022-12-18T10:32:44;22.02;;;13.10;;
55455;SDS011;63021;52.836;6.376;2022-12-18T10:35:27;18.52;;;12.68;;
55455;SDS011;63021;52.836;6.376;2022-12-18T10:38:03;20.52;;;11.90;;
55455;SDS011;63021;52.836;6.376;2022-12-18T10:43:30;14.32;;;10.02;;
55455;SDS011;63021;52.836;6.376;2022-12-18T10:46:02;20.40;;;11.52;;
55455;SDS011;63021;52.836;6.376;2022-12-18T10:51:22;18.33;;;11.70;;
55455;SDS011;63021;52.836;6.376;2022-12-18T10:53:51;19.75;;;11.15;;
55455;SDS011;63021;52.836;6.376;2022-12-18T10:56:22;16.67;;;10.98;;
55455;SDS011;63021;52.836;6.376;2022-12-18T10:58:56;18.00;;;10.70;;
55455;SDS011;63021;52.836;6.376;2022-12-18T11:01:24;16.25;;;10.98;;
55455;SDS011;63021;52.836;6.376;2022-12-18T11:06:18;23.65;;;13.48;;
55455;SDS011;63021;52.836;6.376;2022-12-18T11:08:59;24.02;;;17.52;;
55455;SDS011;63021;52.836;6.376;2022-12-18T11:11:30;18.65;;;12.88;;
55455;SDS011;63021;52.836;6.376;2022-12-18T11:13:58;20.48;;;11.63;;
55455;SDS011;63021;52.836;6.376;2022-12-18T11:16:33;18.20;;;12.35;;
55455;SDS011;63021;52.836;6.376;2022-12-18T11:21:59;16.05;;;10.57;;
55455;SDS011;63021;52.836;6.376;2022-12-18T11:24:31;15.55;;;10.50;;
55455;SDS011;63021;52.836;6.376;2022-12-18T11:27:03;16.88;;;10.50;;
55455;SDS011;63021;52.836;6.376;2022-12-18T11:34:44;15.13;;;10.25;;
55455;SDS011;63021;52.836;6.376;2022-12-18T11:37:13;14.05;;;9.13;;
55455;SDS011;63021;52.836;6.376;2022-12-18T11:39:49;15.25;;;10.10;;
55455;SDS011;63021;52.836;6.376;2022-12-18T11:42:21;17.92;;;9.10;;
55455;SDS011;63021;52.836;6.376;2022-12-18T11:47:38;13.15;;;9.00;;
55455;SDS011;63021;52.836;6.376;2022-12-18T11:50:12;15.35;;;9.48;;
55455;SDS011;63021;52.836;6.376;2022-12-18T11:52:41;11.35;;;8.75;;
55455;SDS011;63021;52.836;6.376;2022-12-18T11:55:10;15.13;;;9.05;;
55455;SDS011;63021;52.836;6.376;2022-12-18T12:00:15;14.50;;;8.07;;
55455;SDS011;63021;52.836;6.376;2022-12-18T12:30:49;10.80;;;7.28;;
55455;SDS011;63021;52.836;6.376;2022-12-18T12:33:36;10.48;;;6.38;;
55455;SDS011;63021;52.836;6.376;2022-12-18T12:36:08;8.65;;;6.22;;
55455;SDS011;63021;52.836;6.376;2022-12-18T12:38:54;8.00;;;6.38;;
55455;SDS011;63021;52.836;6.376;2022-12-18T12:41:23;7.80;;;6.18;;
55455;SDS011;63021;52.836;6.376;2022-12-18T12:44:13;10.38;;;6.22;;
55455;SDS011;63021;52.836;6.376;2022-12-18T12:46:43;7.60;;;5.97;;
55455;SDS011;63021;52.836;6.376;2022-12-18T12:49:10;12.02;;;6.40;;
55455;SDS011;63021;52.836;6.376;2022-12-18T12:51:40;12.88;;;7.35;;
55455;SDS011;63021;52.836;6.376;2022-12-18T12:54:15;9.38;;;6.43;;
55455;SDS011;63021;52.836;6.376;2022-12-18T12:59:39;9.57;;;6.78;;
55455;SDS011;63021;52.836;6.376;2022-12-18T13:13:05;13.52;;;7.95;;
55455;SDS011;63021;52.836;6.376;2022-12-18T13:23:00;8.38;;;6.63;;
55455;SDS011;63021;52.836;6.376;2022-12-18T13:25:38;8.07;;;5.80;;
55455;SDS011;63021;52.836;6.376;2022-12-18T13:30:41;9.25;;;6.40;;
55455;SDS011;63021;52.836;6.376;2022-12-18T13:35:39;11.55;;;7.30;;
55455;SDS011;63021;52.836;6.376;2022-12-18T13:45:47;9.75;;;6.75;;
55455;SDS011;63021;52.836;6.376;2022-12-18T13:48:35;9.00;;;5.82;;
55455;SDS011;63021;52.836;6.376;2022-12-18T13:51:06;8.63;;;6.05;;
55455;SDS011;63021;52.836;6.376;2022-12-18T13:53:44;8.80;;;6.55;;
55455;SDS011;63021;52.836;6.376;2022-12-18T13:56:42;11.57;;;7.25;;
55455;SDS011;63021;52.836;6.376;2022-12-18T13:59:13;9.13;;;6.40;;
55455;SDS011;63021;52.836;6.376;2022-12-18T14:01:52;10.50;;;6.90;;
55455;SDS011;63021;52.836;6.376;2022-12-18T14:04:28;8.98;;;6.53;;
55455;SDS011;63021;52.836;6.376;2022-12-18T14:07:01;8.35;;;6.15;;
55455;SDS011;63021;52.836;6.376;2022-12-18T14:09:35;12.20;;;6.32;;
55455;SDS011;63021;52.836;6.376;2022-12-18T14:12:02;9.90;;;6.25;;
55455;SDS011;63021;52.836;6.376;2022-12-18T14:14:47;10.00;;;7.03;;
55455;SDS011;63021;52.836;6.376;2022-12-18T14:17:16;11.63;;;6.97;;
55455;SDS011;63021;52.836;6.376;2022-12-18T14:19:46;8.38;;;6.28;;
55455;SDS011;63021;52.836;6.376;2022-12-18T14:22:16;9.30;;;6.82;;
55455;SDS011;63021;52.836;6.376;2022-12-18T14:24:44;10.63;;;6.63;;
55455;SDS011;63021;52.836;6.376;2022-12-18T14:27:20;9.00;;;7.00;;
55455;SDS011;63021;52.836;6.376;2022-12-18T14:29:48;11.23;;;8.15;;
55455;SDS011;63021;52.836;6.376;2022-12-18T14:32:15;10.48;;;7.75;;
55455;SDS011;63021;52.836;6.376;2022-12-18T14:34:46;13.05;;;8.43;;
55455;SDS011;63021;52.836;6.376;2022-12-18T14:37:17;12.23;;;8.43;;
55455;SDS011;63021;52.836;6.376;2022-12-18T14:39:59;11.57;;;7.82;;
55455;SDS011;63021;52.836;6.376;2022-12-18T14:42:26;14.05;;;8.35;;
55455;SDS011;63021;52.836;6.376;2022-12-18T14:47:55;11.30;;;7.82;;
55455;SDS011;63021;52.836;6.376;2022-12-18T14:50:21;12.23;;;7.85;;
55455;SDS011;63021;52.836;6.376;2022-12-18T14:52:46;12.10;;;7.65;;
55455;SDS011;63021;52.836;6.376;2022-12-18T14:55:14;13.65;;;10.05;;
55455;SDS011;63021;52.836;6.376;2022-12-18T14:57:42;14.85;;;9.48;;
55455;SDS011;63021;52.836;6.376;2022-12-18T15:00:16;10.40;;;7.10;;
55455;SDS011;63021;52.836;6.376;2022-12-18T15:02:44;10.23;;;8.05;;
55455;SDS011;63021;52.836;6.376;2022-12-18T15:07:40;12.55;;;7.43;;
55455;SDS011;63021;52.836;6.376;2022-12-18T15:10:11;10.85;;;8.43;;
55455;SDS011;63021;52.836;6.376;2022-12-18T15:18:01;15.48;;;7.90;;
55455;SDS011;63021;52.836;6.376;2022-12-18T15:20:33;12.85;;;8.50;;
55455;SDS011;63021;52.836;6.376;2022-12-18T15:25:54;17.67;;;10.27;;
55455;SDS011;63021;52.836;6.376;2022-12-18T15:31:02;20.08;;;12.38;;
55455;SDS011;63021;52.836;6.376;2022-12-18T15:33:38;24.33;;;14.50;;
55455;SDS011;63021;52.836;6.376;2022-12-18T15:36:09;23.83;;;14.15;;
55455;SDS011;63021;52.836;6.376;2022-12-18T15:38:36;19.58;;;11.77;;
55455;SDS011;63021;52.836;6.376;2022-12-18T15:41:02;18.30;;;10.38;;
55455;SDS011;63021;52.836;6.376;2022-12-18T15:43:32;10.77;;;9.25;;
55455;SDS011;63021;52.836;6.376;2022-12-18T15:46:02;25.55;;;12.38;;
55455;SDS011;63021;52.836;6.376;2022-12-18T15:48:28;28.00;;;15.95;;
55455;SDS011;63021;52.836;6.376;2022-12-18T15:50:54;17.55;;;11.85;;
55455;SDS011;63021;52.836;6.376;2022-12-18T15:53:21;14.05;;;10.00;;
55455;SDS011;63021;52.836;6.376;2022-12-18T15:55:47;10.65;;;9.48;;
55455;SDS011;63021;52.836;6.376;2022-12-18T15:58:31;11.35;;;9.25;;
55455;SDS011;63021;52.836;6.376;2022-12-18T16:00:58;13.70;;;8.20;;
55455;SDS011;63021;52.836;6.376;2022-12-18T16:03:25;14.40;;;9.73;;
55455;SDS011;63021;52.836;6.376;2022-12-18T16:05:50;16.60;;;10.00;;
55455;SDS011;63021;52.836;6.376;2022-12-18T16:08:16;12.68;;;9.35;;
55455;SDS011;63021;52.836;6.376;2022-12-18T16:10:41;15.55;;;10.00;;
55455;SDS011;63021;52.836;6.376;2022-12-18T16:13:16;18.35;;;11.43;;
55455;SDS011;63021;52.836;6.376;2022-12-18T16:15:44;17.00;;;9.70;;
55455;SDS011;63021;52.836;6.376;2022-12-18T16:18:09;16.42;;;10.80;;
55455;SDS011;63021;52.836;6.376;2022-12-18T16:20:35;15.50;;;10.07;;
55455;SDS011;63021;52.836;6.376;2022-12-18T16:23:00;15.07;;;10.55;;
55455;SDS011;63021;52.836;6.376;2022-12-18T16:25:26;18.27;;;10.23;;
55455;SDS011;63021;52.836;6.376;2022-12-18T16:27:53;16.23;;;9.95;;
55455;SDS011;63021;52.836;6.376;2022-12-18T16:30:29;15.70;;;9.70;;
55455;SDS011;63021;52.836;6.376;2022-12-18T16:32:56;13.98;;;8.93;;
55455;SDS011;63021;52.836;6.376;2022-12-18T16:35:22;14.63;;;8.93;;
55455;SDS011;63021;52.836;6.376;2022-12-18T16:37:49;15.88;;;10.38;;
55455;SDS011;63021;52.836;6.376;2022-12-18T16:40:14;15.48;;;9.13;;
55455;SDS011;63021;52.836;6.376;2022-12-18T16:42:41;13.32;;;9.32;;
55455;SDS011;63021;52.836;6.376;2022-12-18T16:45:09;17.17;;;11.00;;
55455;SDS011;63021;52.836;6.376;2022-12-18T16:47:38;14.27;;;9.45;;
55455;SDS011;63021;52.836;6.376;2022-12-18T16:50:04;14.30;;;9.20;;
55455;SDS011;63021;52.836;6.376;2022-12-18T16:52:30;12.70;;;8.98;;
55455;SDS011;63021;52.836;6.376;2022-12-18T16:54:56;13.15;;;8.45;;
55455;SDS011;63021;52.836;6.376;2022-12-18T16:57:21;14.10;;;9.90;;
55455;SDS011;63021;52.836;6.376;2022-12-18T16:59:47;19.83;;;10.13;;